createdAt,value
2022-12-08T00:00:02.183Z,12.20
2022-12-08T00:01:01.995Z,12.20
2022-12-08T00:02:02.331Z,12.60
2022-12-08T00:03:02.659Z,12.60
2022-12-08T00:04:02.272Z,12.60
2022-12-08T00:05:02.583Z,12.60
2022-12-08T00:06:02.769Z,12.60
2022-12-08T00:07:02.939Z,12.70
2022-12-08T00:08:02.939Z,12.70
2022-12-08T00:09:02.677Z,12.70
2022-12-08T00:10:14.321Z,12.70
2022-12-08T00:11:02.869Z,12.70
2022-12-08T00:12:02.797Z,13.60
2022-12-08T00:13:02.868Z,13.60
2022-12-08T00:14:02.793Z,13.60
2022-12-08T00:15:03.035Z,13.60
2022-12-08T00:16:02.921Z,13.60
2022-12-08T00:17:02.882Z,14.20
2022-12-08T00:18:03.289Z,14.20
2022-12-08T00:19:02.973Z,14.20
2022-12-08T00:20:03.081Z,14.20
2022-12-08T00:21:02.994Z,14.20
2022-12-08T00:22:02.109Z,14.50
2022-12-08T00:23:02.116Z,14.50
2022-12-08T00:24:01.875Z,14.50
2022-12-08T00:25:02.564Z,14.50
2022-12-08T00:26:02.211Z,14.50
2022-12-08T00:27:02.631Z,15.00
2022-12-08T00:28:02.324Z,15.00
2022-12-08T00:29:02.542Z,15.00
2022-12-08T00:30:02.382Z,15.00
2022-12-08T00:31:02.104Z,15.00
2022-12-08T00:32:02.946Z,14.00
2022-12-08T00:33:02.618Z,14.00
2022-12-08T00:34:02.828Z,14.00
2022-12-08T00:35:03.502Z,14.00
2022-12-08T00:36:02.731Z,14.00
2022-12-08T00:37:02.860Z,13.90
2022-12-08T00:38:02.555Z,13.90
2022-12-08T00:39:02.429Z,13.90
2022-12-08T00:40:02.709Z,13.90
2022-12-08T00:41:02.505Z,13.90
2022-12-08T00:42:02.662Z,14.10
2022-12-08T00:43:02.446Z,14.10
2022-12-08T00:44:02.550Z,14.10
2022-12-08T00:45:02.967Z,14.10
2022-12-08T00:46:02.480Z,14.10
2022-12-08T00:47:02.205Z,13.80
2022-12-08T00:48:02.604Z,13.80
2022-12-08T00:49:02.599Z,13.80
2022-12-08T00:50:02.550Z,13.80
2022-12-08T00:51:02.218Z,13.80
2022-12-08T00:52:02.625Z,13.50
2022-12-08T00:53:03.042Z,13.50
2022-12-08T00:54:02.855Z,13.50
2022-12-08T00:55:02.551Z,13.50
2022-12-08T00:56:03.226Z,13.50
2022-12-08T00:57:02.696Z,12.90
2022-12-08T00:58:03.117Z,12.90
2022-12-08T00:59:03.252Z,12.90
2022-12-08T01:00:03.206Z,12.90
2022-12-08T01:01:03.137Z,12.90
2022-12-08T01:02:02.713Z,12.40
2022-12-08T01:03:03.227Z,12.40
2022-12-08T01:04:03.143Z,12.40
2022-12-08T01:05:03.219Z,12.40
2022-12-08T01:06:03.035Z,12.40
2022-12-08T01:07:02.828Z,11.90
2022-12-08T01:08:02.852Z,11.90
2022-12-08T01:09:03.348Z,11.90
2022-12-08T01:10:03.572Z,11.90
2022-12-08T01:11:03.155Z,11.90
2022-12-08T01:12:02.984Z,12.10
2022-12-08T01:13:03.440Z,12.10
2022-12-08T01:14:02.814Z,12.10
2022-12-08T01:15:03.487Z,12.10
2022-12-08T01:16:03.402Z,12.10
2022-12-08T01:17:03.048Z,12.00
2022-12-08T01:18:03.278Z,12.00
2022-12-08T01:19:02.837Z,12.00
2022-12-08T01:20:03.722Z,12.00
2022-12-08T01:21:03.058Z,12.00
2022-12-08T01:22:02.519Z,12.30
2022-12-08T01:23:02.797Z,12.30
2022-12-08T01:24:02.553Z,12.30
2022-12-08T01:25:02.763Z,12.30
2022-12-08T01:26:02.877Z,12.30
2022-12-08T01:27:02.705Z,12.60
2022-12-08T01:28:03.163Z,12.60
2022-12-08T01:29:03.168Z,12.60
2022-12-08T01:30:03.086Z,12.60
2022-12-08T01:31:02.817Z,12.60
2022-12-08T01:32:02.570Z,11.70
2022-12-08T01:33:02.307Z,11.70
2022-12-08T01:34:02.800Z,11.70
2022-12-08T01:35:02.352Z,11.70
2022-12-08T01:36:02.543Z,11.70
2022-12-08T01:37:03.415Z,11.20
2022-12-08T01:38:02.892Z,11.20
2022-12-08T01:39:03.130Z,11.20
2022-12-08T01:40:03.821Z,11.20
2022-12-08T01:41:03.283Z,11.20
2022-12-08T01:42:02.516Z,11.50
2022-12-08T01:43:02.302Z,11.50
2022-12-08T01:44:02.799Z,11.50
2022-12-08T01:45:02.902Z,11.50
2022-12-08T01:46:03.004Z,11.50
2022-12-08T01:47:03.025Z,10.50
2022-12-08T01:48:02.892Z,10.50
2022-12-08T01:49:02.691Z,10.50
2022-12-08T01:50:03.544Z,10.50
2022-12-08T01:51:03.243Z,10.50
2022-12-08T01:52:02.901Z,10.70
2022-12-08T01:53:03.291Z,10.70
2022-12-08T01:54:02.772Z,10.70
2022-12-08T01:55:02.827Z,10.70
2022-12-08T01:56:03.234Z,10.70
2022-12-08T01:57:02.550Z,10.70
2022-12-08T01:58:02.292Z,10.70
2022-12-08T01:59:02.589Z,10.70
2022-12-08T02:00:03.118Z,10.70
2022-12-08T02:01:02.586Z,10.70
2022-12-08T02:02:02.972Z,10.30
2022-12-08T02:03:03.170Z,10.30
2022-12-08T02:04:03.188Z,10.30
2022-12-08T02:05:03.033Z,10.30
2022-12-08T02:06:02.805Z,10.30
2022-12-08T02:07:07.836Z,9.10
2022-12-08T02:08:03.137Z,9.10
2022-12-08T02:09:03.482Z,9.10
2022-12-08T02:10:03.719Z,9.10
2022-12-08T02:11:03.320Z,9.10
2022-12-08T02:12:02.729Z,9.80
2022-12-08T02:13:02.895Z,9.80
2022-12-08T02:14:02.722Z,9.80
2022-12-08T02:15:05.227Z,9.80
2022-12-08T02:16:03.010Z,9.80
2022-12-08T02:17:03.498Z,9.10
2022-12-08T02:18:03.262Z,9.10
2022-12-08T02:19:29.648Z,9.10
2022-12-08T02:20:03.146Z,9.10
2022-12-08T02:21:03.137Z,9.10
2022-12-08T02:22:02.651Z,8.60
2022-12-08T02:23:02.351Z,8.60
2022-12-08T02:24:02.822Z,8.60
2022-12-08T02:25:02.840Z,8.60
2022-12-08T02:26:02.297Z,8.60
2022-12-08T02:27:02.385Z,9.00
2022-12-08T02:28:02.550Z,9.00
2022-12-08T02:29:02.898Z,9.00
2022-12-08T02:30:03.123Z,9.00
2022-12-08T02:31:02.874Z,9.00
2022-12-08T02:32:02.924Z,8.20
2022-12-08T02:33:02.875Z,8.20
2022-12-08T02:34:03.163Z,8.20
2022-12-08T02:35:02.683Z,8.20
2022-12-08T02:36:03.023Z,8.20
2022-12-08T02:37:02.345Z,8.30
2022-12-08T02:38:02.683Z,8.30
2022-12-08T02:39:02.423Z,8.30
2022-12-08T02:40:02.586Z,8.30
2022-12-08T02:41:02.613Z,8.30
2022-12-08T02:42:02.859Z,8.00
2022-12-08T02:43:02.381Z,8.00
2022-12-08T02:44:02.796Z,8.00
2022-12-08T02:45:02.485Z,8.00
2022-12-08T02:46:02.960Z,8.00
2022-12-08T02:47:03.147Z,8.20
2022-12-08T02:48:02.895Z,8.20
2022-12-08T02:49:02.825Z,8.20
2022-12-08T02:50:03.471Z,8.20
2022-12-08T02:51:03.336Z,8.20
2022-12-08T02:52:02.426Z,7.80
2022-12-08T02:53:02.428Z,7.80
2022-12-08T02:54:02.218Z,7.80
2022-12-08T02:55:02.481Z,7.80
2022-12-08T02:56:02.141Z,7.80
2022-12-08T02:57:02.693Z,7.90
2022-12-08T02:58:02.712Z,7.90
2022-12-08T02:59:03.116Z,7.90
2022-12-08T03:00:03.506Z,7.90
2022-12-08T03:01:03.330Z,7.90
2022-12-08T03:02:02.382Z,7.90
2022-12-08T03:03:02.651Z,7.90
2022-12-08T03:04:02.653Z,7.90
2022-12-08T03:05:02.349Z,7.90
2022-12-08T03:06:02.018Z,7.90
2022-12-08T03:07:01.946Z,7.70
2022-12-08T03:08:01.778Z,7.70
2022-12-08T03:09:01.954Z,7.70
2022-12-08T03:10:01.697Z,7.70
2022-12-08T03:11:01.961Z,7.70
2022-12-08T03:12:01.884Z,7.40
2022-12-08T03:13:02.237Z,7.40
2022-12-08T03:14:01.945Z,7.40
2022-12-08T03:15:02.326Z,7.40
2022-12-08T03:16:02.172Z,7.40
2022-12-08T03:17:02.473Z,7.00
2022-12-08T03:18:01.973Z,7.00
2022-12-08T03:19:02.006Z,7.00
2022-12-08T03:20:02.686Z,7.00
2022-12-08T03:21:02.494Z,7.00
2022-12-08T03:22:02.600Z,6.90
2022-12-08T03:23:02.300Z,6.90
2022-12-08T03:24:02.213Z,6.90
2022-12-08T03:25:02.102Z,6.90
2022-12-08T03:26:02.209Z,6.90
2022-12-08T03:27:02.243Z,6.60
2022-12-08T03:28:02.723Z,6.60
2022-12-08T03:29:02.399Z,6.60
2022-12-08T03:30:02.918Z,6.60
2022-12-08T03:31:02.323Z,6.60
2022-12-08T03:32:02.343Z,6.20
2022-12-08T03:33:02.802Z,6.20
2022-12-08T03:34:02.230Z,6.20
2022-12-08T03:35:02.694Z,6.20
2022-12-08T03:36:02.446Z,6.20
2022-12-08T03:37:02.493Z,6.00
2022-12-08T03:38:02.839Z,6.00
2022-12-08T03:39:02.323Z,6.00
2022-12-08T03:40:03.076Z,6.00
2022-12-08T03:41:02.759Z,6.00
2022-12-08T03:42:02.885Z,6.00
2022-12-08T03:43:02.300Z,6.00
2022-12-08T03:44:02.598Z,6.00
2022-12-08T03:45:02.884Z,6.00
2022-12-08T03:46:02.429Z,6.00
2022-12-08T03:47:02.132Z,5.80
2022-12-08T03:48:01.918Z,5.80
2022-12-08T03:49:02.364Z,5.80
2022-12-08T03:50:02.543Z,5.80
2022-12-08T03:51:02.120Z,5.80
2022-12-08T03:52:01.473Z,5.50
2022-12-08T03:53:02.045Z,5.50
2022-12-08T03:54:01.742Z,5.50
2022-12-08T03:55:02.041Z,5.50
2022-12-08T03:56:01.831Z,5.50
2022-12-08T03:57:01.501Z,5.50
2022-12-08T03:58:01.808Z,5.50
2022-12-08T03:59:01.484Z,5.50
2022-12-08T04:00:02.378Z,5.50
2022-12-08T04:01:01.468Z,5.50
2022-12-08T04:02:02.397Z,6.00
2022-12-08T04:03:02.190Z,6.00
2022-12-08T04:04:01.899Z,6.00
2022-12-08T04:05:02.288Z,6.00
2022-12-08T04:06:01.987Z,6.00
2022-12-08T04:07:02.248Z,5.10
2022-12-08T04:08:02.808Z,5.10
2022-12-08T04:09:02.348Z,5.10
2022-12-08T04:10:03.146Z,5.10
2022-12-08T04:11:02.404Z,5.10
2022-12-08T04:12:01.855Z,5.60
2022-12-08T04:13:02.232Z,5.60
2022-12-08T04:14:01.832Z,5.60
2022-12-08T04:15:02.101Z,5.60
2022-12-08T04:16:02.444Z,5.60
2022-12-08T04:17:02.345Z,5.60
2022-12-08T04:18:02.475Z,5.60
2022-12-08T04:19:02.888Z,5.60
2022-12-08T04:20:02.775Z,5.60
2022-12-08T04:21:02.305Z,5.60
2022-12-08T04:22:01.662Z,5.40
2022-12-08T04:23:02.030Z,5.40
2022-12-08T04:24:02.084Z,5.40
2022-12-08T04:25:01.491Z,5.40
2022-12-08T04:26:01.769Z,5.40
2022-12-08T04:27:02.360Z,5.30
2022-12-08T04:28:02.014Z,5.30
2022-12-08T04:29:01.875Z,5.30
2022-12-08T04:30:02.575Z,5.30
2022-12-08T04:31:01.999Z,5.30
2022-12-08T04:32:02.601Z,5.40
2022-12-08T04:33:02.390Z,5.40
2022-12-08T04:34:02.648Z,5.40
2022-12-08T04:35:02.318Z,5.40
2022-12-08T04:36:02.598Z,5.40
2022-12-08T04:37:02.059Z,5.50
2022-12-08T04:38:01.917Z,5.50
2022-12-08T04:39:02.419Z,5.50
2022-12-08T04:40:02.629Z,5.50
2022-12-08T04:41:02.301Z,5.50
2022-12-08T04:42:02.600Z,5.60
2022-12-08T04:43:02.885Z,5.60
2022-12-08T04:44:02.499Z,5.60
2022-12-08T04:45:02.639Z,5.60
2022-12-08T04:46:02.927Z,5.60
2022-12-08T04:47:02.418Z,5.30
2022-12-08T04:48:02.485Z,5.30
2022-12-08T04:49:02.059Z,5.30
2022-12-08T04:50:03.131Z,5.30
2022-12-08T04:51:02.088Z,5.30
2022-12-08T04:52:02.373Z,5.30
2022-12-08T04:53:02.146Z,5.30
2022-12-08T04:54:02.463Z,5.30
2022-12-08T04:55:02.764Z,5.30
2022-12-08T04:56:02.810Z,5.30
2022-12-08T04:57:02.995Z,5.30
2022-12-08T04:58:02.421Z,5.30
2022-12-08T04:59:02.559Z,5.30
2022-12-08T05:00:03.028Z,5.30
2022-12-08T05:01:02.460Z,5.30
2022-12-08T05:02:02.949Z,5.20
2022-12-08T05:03:02.849Z,5.20
2022-12-08T05:04:02.661Z,5.20
2022-12-08T05:05:02.997Z,5.20
2022-12-08T05:06:02.655Z,5.20
2022-12-08T05:07:02.987Z,5.10
2022-12-08T05:08:02.953Z,5.10
2022-12-08T05:09:02.998Z,5.10
2022-12-08T05:10:03.622Z,5.10
2022-12-08T05:11:02.874Z,5.10
2022-12-08T05:12:03.172Z,5.40
2022-12-08T05:13:03.287Z,5.40
2022-12-08T05:14:03.203Z,5.40
2022-12-08T05:15:03.610Z,5.40
2022-12-08T05:16:03.013Z,5.40
2022-12-08T05:17:07.766Z,7.00
2022-12-08T05:18:02.418Z,7.00
2022-12-08T05:19:02.087Z,7.00
2022-12-08T05:20:02.885Z,7.00
2022-12-08T05:21:02.728Z,7.00
2022-12-08T05:22:02.825Z,7.40
2022-12-08T05:23:02.572Z,7.40
2022-12-08T05:24:02.946Z,7.40
2022-12-08T05:25:02.634Z,7.40
2022-12-08T05:26:03.052Z,7.40
2022-12-08T05:27:03.227Z,7.00
2022-12-08T05:28:32.898Z,7.00
2022-12-08T05:29:03.261Z,7.00
2022-12-08T05:30:03.761Z,7.00
2022-12-08T05:31:03.413Z,7.00
2022-12-08T05:32:02.753Z,7.20
2022-12-08T05:33:02.842Z,7.20
2022-12-08T05:34:03.296Z,7.20
2022-12-08T05:35:02.822Z,7.20
2022-12-08T05:36:02.316Z,7.20
2022-12-08T05:37:03.154Z,7.00
2022-12-08T05:38:02.878Z,7.00
2022-12-08T05:39:03.204Z,7.00
2022-12-08T05:40:04.067Z,7.00
2022-12-08T05:41:02.849Z,7.00
2022-12-08T05:42:02.822Z,7.40
2022-12-08T05:43:02.528Z,7.40
2022-12-08T05:44:02.525Z,7.40
2022-12-08T05:45:02.858Z,7.40
2022-12-08T05:46:02.556Z,7.40
2022-12-08T05:47:02.526Z,7.60
2022-12-08T05:48:03.126Z,7.60
2022-12-08T05:49:02.592Z,7.60
2022-12-08T05:50:03.370Z,7.60
2022-12-08T05:51:02.919Z,7.60
2022-12-08T05:52:03.246Z,7.60
2022-12-08T05:53:02.849Z,7.60
2022-12-08T05:54:03.334Z,7.60
2022-12-08T05:55:03.043Z,7.60
2022-12-08T05:56:03.359Z,7.30
2022-12-08T05:57:02.580Z,7.30
2022-12-08T05:58:07.611Z,7.30
2022-12-08T05:59:02.452Z,7.30
2022-12-08T06:00:03.190Z,7.30
2022-12-08T06:01:02.495Z,7.30
2022-12-08T06:02:02.989Z,9.50
2022-12-08T06:03:03.078Z,9.50
2022-12-08T06:04:02.489Z,9.50
2022-12-08T06:05:02.857Z,9.50
2022-12-08T06:06:02.593Z,9.30
2022-12-08T06:07:02.934Z,9.30
2022-12-08T06:08:02.646Z,9.30
2022-12-08T06:09:02.879Z,9.30
2022-12-08T06:10:03.042Z,9.30
2022-12-08T06:11:02.468Z,8.80
2022-12-08T06:12:02.537Z,8.80
2022-12-08T06:13:02.177Z,8.80
2022-12-08T06:14:02.515Z,8.80
2022-12-08T06:15:02.616Z,8.80
2022-12-08T06:16:02.632Z,8.10
2022-12-08T06:17:02.519Z,8.10
2022-12-08T06:18:02.421Z,8.10
2022-12-08T06:19:02.131Z,8.10
2022-12-08T06:20:02.857Z,8.10
2022-12-08T06:21:02.389Z,9.00
2022-12-08T06:22:02.387Z,9.00
2022-12-08T06:23:01.913Z,9.00
2022-12-08T06:24:02.237Z,9.00
2022-12-08T06:25:04.918Z,9.00
2022-12-08T06:26:02.268Z,8.70
2022-12-08T06:27:02.693Z,8.70
2022-12-08T06:28:02.464Z,8.70
2022-12-08T06:29:02.134Z,8.70
2022-12-08T06:30:03.168Z,8.70
2022-12-08T06:31:02.699Z,8.90
2022-12-08T06:32:02.405Z,8.90
2022-12-08T06:33:02.258Z,8.90
2022-12-08T06:34:02.629Z,8.90
2022-12-08T06:35:02.222Z,8.90
2022-12-08T06:36:02.536Z,9.70
2022-12-08T06:37:01.653Z,9.70
2022-12-08T06:38:01.864Z,9.70
2022-12-08T06:39:02.215Z,9.70
2022-12-08T06:40:01.919Z,9.70
2022-12-08T06:41:02.152Z,9.60
2022-12-08T06:42:02.466Z,9.60
2022-12-08T06:43:01.860Z,9.60
2022-12-08T06:44:02.271Z,9.60
2022-12-08T06:45:02.057Z,9.60
2022-12-08T06:46:02.132Z,10.00
2022-12-08T06:47:01.917Z,10.00
2022-12-08T06:48:02.360Z,10.00
2022-12-08T06:49:02.119Z,10.00
2022-12-08T06:50:02.970Z,10.00
2022-12-08T06:51:02.116Z,10.60
2022-12-08T06:52:02.681Z,10.60
2022-12-08T06:53:05.518Z,10.60
2022-12-08T06:54:02.673Z,10.60
2022-12-08T06:55:02.589Z,10.60
2022-12-08T06:56:03.030Z,10.30
2022-12-08T06:57:02.150Z,10.30
2022-12-08T06:58:02.598Z,10.30
2022-12-08T06:59:02.195Z,10.30
2022-12-08T07:00:03.186Z,10.30
2022-12-08T07:01:02.644Z,10.70
2022-12-08T07:02:03.253Z,10.70
2022-12-08T07:03:03.690Z,10.70
2022-12-08T07:04:03.191Z,10.70
2022-12-08T07:05:03.065Z,10.70
2022-12-08T07:06:04.344Z,10.80
2022-12-08T07:07:02.853Z,10.80
2022-12-08T07:08:03.358Z,10.80
2022-12-08T07:09:03.039Z,10.80
2022-12-08T07:10:03.342Z,10.80
2022-12-08T07:11:03.059Z,11.00
2022-12-08T07:12:03.472Z,11.00
2022-12-08T07:13:03.536Z,11.00
2022-12-08T07:14:03.642Z,11.00
2022-12-08T07:15:03.225Z,11.00
2022-12-08T07:16:03.645Z,11.60
2022-12-08T07:17:02.892Z,11.60
2022-12-08T07:18:03.354Z,11.60
2022-12-08T07:19:03.305Z,11.60
2022-12-08T07:20:03.192Z,11.60
2022-12-08T07:21:02.974Z,11.30
2022-12-08T07:22:03.586Z,11.30
2022-12-08T07:23:03.279Z,11.30
2022-12-08T07:24:03.747Z,11.30
2022-12-08T07:25:03.295Z,11.30
2022-12-08T07:26:03.592Z,11.50
2022-12-08T07:27:02.386Z,11.50
2022-12-08T07:28:02.597Z,11.50
2022-12-08T07:29:02.683Z,11.50
2022-12-08T07:30:03.587Z,11.50
2022-12-08T07:31:02.681Z,11.40
2022-12-08T07:32:03.428Z,11.40
2022-12-08T07:33:02.873Z,11.40
2022-12-08T07:34:03.213Z,11.40
2022-12-08T07:35:02.958Z,11.40
2022-12-08T07:36:03.384Z,11.40
2022-12-08T07:37:03.018Z,11.40
2022-12-08T07:38:03.201Z,11.40
2022-12-08T07:39:02.827Z,11.40
2022-12-08T07:40:03.579Z,11.40
2022-12-08T07:41:03.382Z,11.40
2022-12-08T07:42:02.375Z,11.40
2022-12-08T07:43:02.669Z,11.40
2022-12-08T07:44:03.042Z,11.40
2022-12-08T07:45:02.604Z,11.40
2022-12-08T07:46:02.917Z,10.50
2022-12-08T07:47:03.149Z,10.50
2022-12-08T07:48:02.905Z,10.50
2022-12-08T07:49:03.409Z,10.50
2022-12-08T07:50:03.695Z,10.50
2022-12-08T07:51:03.125Z,10.80
2022-12-08T07:52:02.619Z,10.80
2022-12-08T07:53:02.322Z,10.80
2022-12-08T07:54:02.843Z,10.80
2022-12-08T07:55:02.915Z,10.80
2022-12-08T07:56:02.493Z,9.20
2022-12-08T07:57:02.940Z,9.20
2022-12-08T07:58:02.752Z,9.20
2022-12-08T07:59:03.213Z,9.20
2022-12-08T08:00:03.189Z,9.20
2022-12-08T08:01:03.258Z,9.50
2022-12-08T08:02:22.789Z,9.50
2022-12-08T08:03:02.229Z,9.50
2022-12-08T08:04:02.574Z,9.50
2022-12-08T08:05:02.236Z,9.50
2022-12-08T08:06:02.297Z,9.20
2022-12-08T08:07:02.764Z,9.20
2022-12-08T08:08:02.598Z,9.20
2022-12-08T08:09:02.404Z,9.20
2022-12-08T08:10:03.334Z,9.20
2022-12-08T08:11:08.937Z,9.50
2022-12-08T08:12:29.504Z,9.50
2022-12-08T08:13:02.149Z,9.50
2022-12-08T08:14:02.269Z,9.50
2022-12-08T08:15:02.152Z,9.50
2022-12-08T08:16:02.476Z,9.60
2022-12-08T08:17:02.226Z,9.60
2022-12-08T08:18:02.039Z,9.60
2022-12-08T08:19:02.067Z,9.60
2022-12-08T08:20:02.336Z,9.60
2022-12-08T08:21:15.854Z,9.60
2022-12-08T08:22:02.022Z,9.60
2022-12-08T08:23:01.937Z,9.60
2022-12-08T08:24:02.250Z,9.60
2022-12-08T08:25:01.823Z,9.60
2022-12-08T08:26:02.088Z,9.80
2022-12-08T08:27:02.471Z,9.80
2022-12-08T08:28:02.286Z,9.80
2022-12-08T08:29:02.358Z,9.80
2022-12-08T08:30:02.979Z,9.80
2022-12-08T08:31:02.093Z,10.30
2022-12-08T08:32:02.623Z,10.30
2022-12-08T08:33:02.397Z,10.30
2022-12-08T08:34:02.135Z,10.30
2022-12-08T08:35:02.491Z,10.30
2022-12-08T08:36:02.476Z,9.70
2022-12-08T08:37:01.890Z,9.70
2022-12-08T08:38:01.844Z,9.70
2022-12-08T08:39:01.716Z,9.70
2022-12-08T08:40:01.807Z,9.70
2022-12-08T08:41:01.487Z,9.70
2022-12-08T08:42:01.661Z,9.70
2022-12-08T08:43:02.115Z,9.70
2022-12-08T08:44:01.629Z,9.70
2022-12-08T08:45:02.047Z,9.70
2022-12-08T08:46:01.815Z,10.00
2022-12-08T08:47:02.285Z,10.00
2022-12-08T08:48:02.002Z,10.00
2022-12-08T08:49:01.785Z,10.00
2022-12-08T08:50:02.472Z,10.00
2022-12-08T08:51:02.277Z,10.50
2022-12-08T08:52:01.861Z,10.50
2022-12-08T08:53:01.879Z,10.50
2022-12-08T08:54:01.660Z,10.50
2022-12-08T08:55:01.863Z,10.50
2022-12-08T08:56:02.856Z,10.60
2022-12-08T08:57:01.994Z,10.60
2022-12-08T08:58:01.864Z,10.60
2022-12-08T08:59:02.170Z,10.60
2022-12-08T09:00:02.482Z,10.60
2022-12-08T09:01:01.563Z,10.70
2022-12-08T09:02:02.464Z,10.70
2022-12-08T09:03:02.312Z,10.70
2022-12-08T09:04:02.034Z,10.70
2022-12-08T09:05:02.447Z,10.70
2022-12-08T09:06:01.935Z,11.30
2022-12-08T09:07:02.797Z,11.30
2022-12-08T09:08:02.459Z,11.30
2022-12-08T09:09:02.386Z,11.30
2022-12-08T09:10:02.760Z,11.30
2022-12-08T09:11:02.494Z,11.30
2022-12-08T09:12:02.877Z,11.30
2022-12-08T09:13:02.321Z,11.30
2022-12-08T09:14:02.830Z,11.30
2022-12-08T09:15:02.257Z,11.30
2022-12-08T09:16:02.626Z,11.80
2022-12-08T09:17:01.866Z,11.80
2022-12-08T09:18:02.445Z,11.80
2022-12-08T09:19:01.948Z,11.80
2022-12-08T09:20:02.691Z,11.80
2022-12-08T09:21:02.458Z,11.70
2022-12-08T09:22:02.107Z,11.70
2022-12-08T09:23:02.175Z,11.70
2022-12-08T09:24:02.401Z,11.70
2022-12-08T09:25:02.744Z,11.70
2022-12-08T09:26:02.491Z,11.20
2022-12-08T09:27:02.759Z,11.20
2022-12-08T09:28:02.380Z,11.20
2022-12-08T09:29:02.680Z,11.20
2022-12-08T09:30:03.280Z,11.20
2022-12-08T09:31:02.782Z,11.90
2022-12-08T09:32:02.729Z,11.90
2022-12-08T09:33:02.362Z,11.90
2022-12-08T09:34:02.437Z,11.90
2022-12-08T09:35:02.297Z,11.90
2022-12-08T09:36:02.692Z,11.40
2022-12-08T09:37:01.987Z,11.40
2022-12-08T09:38:02.001Z,11.40
2022-12-08T09:39:01.927Z,11.40
2022-12-08T09:40:02.797Z,11.40
2022-12-08T09:41:02.187Z,11.10
2022-12-08T09:42:02.370Z,11.10
2022-12-08T09:43:02.565Z,11.10
2022-12-08T09:44:02.741Z,11.10
2022-12-08T09:45:02.816Z,11.10
2022-12-08T09:46:02.945Z,10.20
2022-12-08T09:47:01.920Z,10.20
2022-12-08T09:48:02.324Z,10.20
2022-12-08T09:49:01.817Z,10.20
2022-12-08T09:50:03.034Z,10.20
2022-12-08T09:51:02.247Z,10.20
2022-12-08T09:52:01.981Z,10.20
2022-12-08T09:53:02.463Z,10.20
2022-12-08T09:54:02.175Z,10.20
2022-12-08T09:55:02.021Z,10.20
2022-12-08T09:56:02.002Z,10.40
2022-12-08T09:57:01.717Z,10.40
2022-12-08T09:58:01.811Z,10.40
2022-12-08T09:59:01.642Z,10.40
2022-12-08T10:00:02.260Z,10.40
2022-12-08T10:01:01.928Z,9.90
2022-12-08T10:02:03.330Z,9.90
2022-12-08T10:03:02.867Z,9.90
2022-12-08T10:04:02.667Z,9.90
2022-12-08T10:05:03.325Z,9.90
2022-12-08T10:06:02.752Z,9.00
2022-12-08T10:07:02.355Z,9.00
2022-12-08T10:08:02.226Z,9.00
2022-12-08T10:09:02.440Z,9.00
2022-12-08T10:10:02.809Z,9.00
2022-12-08T10:11:02.745Z,8.10
2022-12-08T10:12:02.864Z,8.10
2022-12-08T10:13:03.339Z,8.10
2022-12-08T10:14:02.719Z,8.10
2022-12-08T10:15:03.196Z,8.10
2022-12-08T10:16:02.992Z,8.00
2022-12-08T10:17:02.612Z,8.00
2022-12-08T10:18:02.735Z,8.00
2022-12-08T10:19:02.603Z,8.00
2022-12-08T10:20:03.046Z,8.00
2022-12-08T10:21:02.862Z,7.50
2022-12-08T10:22:02.751Z,7.50
2022-12-08T10:23:02.568Z,7.50
2022-12-08T10:24:02.953Z,7.50
2022-12-08T10:25:02.611Z,7.50
2022-12-08T10:26:03.017Z,6.80
2022-12-08T10:27:02.161Z,6.80
2022-12-08T10:28:02.164Z,6.80
2022-12-08T10:29:02.255Z,6.80
2022-12-08T10:30:02.257Z,6.80
2022-12-08T10:31:02.460Z,6.30
2022-12-08T10:32:02.909Z,6.30
2022-12-08T10:33:02.850Z,6.30
2022-12-08T10:34:02.746Z,6.30
2022-12-08T10:35:02.990Z,6.30
2022-12-08T10:36:02.698Z,6.20
2022-12-08T10:37:02.188Z,6.20
2022-12-08T10:38:02.105Z,6.20
2022-12-08T10:39:01.932Z,6.20
2022-12-08T10:40:02.896Z,6.20
2022-12-08T10:41:03.038Z,6.90
2022-12-08T10:42:02.526Z,6.90
2022-12-08T10:43:02.334Z,6.90
2022-12-08T10:44:02.763Z,6.90
2022-12-08T10:45:02.453Z,6.90
2022-12-08T10:46:02.324Z,6.80
2022-12-08T10:47:02.962Z,6.80
2022-12-08T10:48:03.151Z,6.80
2022-12-08T10:49:02.700Z,6.80
2022-12-08T10:50:03.097Z,6.80
2022-12-08T10:51:03.211Z,7.10
2022-12-08T10:52:02.137Z,7.10
2022-12-08T10:53:01.963Z,7.10
2022-12-08T10:54:02.466Z,7.10
2022-12-08T10:55:02.025Z,7.10
2022-12-08T10:56:02.590Z,7.00
2022-12-08T10:57:02.331Z,7.00
2022-12-08T10:58:02.551Z,7.00
2022-12-08T10:59:02.169Z,7.00
2022-12-08T11:00:02.637Z,7.00
2022-12-08T11:01:02.736Z,6.90
2022-12-08T11:02:03.137Z,6.90
2022-12-08T11:03:02.963Z,6.90
2022-12-08T11:04:02.587Z,6.90
2022-12-08T11:05:03.038Z,6.90
2022-12-08T11:06:09.023Z,7.20
2022-12-08T11:07:02.272Z,7.20
2022-12-08T11:08:02.118Z,7.20
2022-12-08T11:09:02.121Z,7.20
2022-12-08T11:10:02.265Z,7.20
2022-12-08T11:11:02.320Z,7.90
2022-12-08T11:12:02.544Z,7.90
2022-12-08T11:13:02.229Z,7.90
2022-12-08T11:14:02.389Z,7.90
2022-12-08T11:15:02.113Z,7.90
2022-12-08T11:16:02.357Z,8.00
2022-12-08T11:17:02.986Z,8.00
2022-12-08T11:18:02.901Z,8.00
2022-12-08T11:19:02.925Z,8.00
2022-12-08T11:20:03.192Z,8.00
2022-12-08T11:21:02.843Z,7.90
2022-12-08T11:22:02.303Z,7.90
2022-12-08T11:23:02.142Z,7.90
2022-12-08T11:24:01.989Z,7.90
2022-12-08T11:25:02.156Z,7.90
2022-12-08T11:26:01.870Z,8.60
2022-12-08T11:27:02.952Z,8.60
2022-12-08T11:28:02.642Z,8.60
2022-12-08T11:29:02.607Z,8.60
2022-12-08T11:30:02.857Z,8.60
2022-12-08T11:31:02.806Z,8.80
2022-12-08T11:32:02.597Z,8.80
2022-12-08T11:33:01.981Z,8.80
2022-12-08T11:34:02.632Z,8.80
2022-12-08T11:35:02.121Z,8.80
2022-12-08T11:36:02.067Z,8.20
2022-12-08T11:37:02.939Z,8.20
2022-12-08T11:38:13.692Z,8.20
2022-12-08T11:39:03.016Z,8.20
2022-12-08T11:40:03.065Z,8.20
2022-12-08T11:41:02.640Z,8.20
2022-12-08T11:42:02.404Z,8.20
2022-12-08T11:43:01.786Z,8.20
2022-12-08T11:44:02.185Z,8.20
2022-12-08T11:45:02.163Z,8.20
2022-12-08T11:46:02.191Z,8.60
2022-12-08T11:47:02.607Z,8.60
2022-12-08T11:48:02.216Z,8.60
2022-12-08T11:49:06.386Z,8.60
2022-12-08T11:50:02.339Z,8.60
2022-12-08T11:51:02.319Z,8.50
2022-12-08T11:52:02.962Z,8.50
2022-12-08T11:53:02.907Z,8.50
2022-12-08T11:54:02.503Z,8.50
2022-12-08T11:55:02.609Z,8.50
2022-12-08T11:56:02.360Z,8.40
2022-12-08T11:57:01.632Z,8.40
2022-12-08T11:58:02.299Z,8.40
2022-12-08T11:59:02.081Z,8.40
2022-12-08T12:00:02.224Z,8.40
2022-12-08T12:01:01.786Z,7.40
2022-12-08T12:02:03.229Z,7.40
2022-12-08T12:03:02.783Z,7.40
2022-12-08T12:04:03.096Z,7.40
2022-12-08T12:05:02.815Z,7.40
2022-12-08T12:06:13.569Z,8.10
2022-12-08T12:07:01.778Z,8.10
2022-12-08T12:08:01.972Z,8.10
2022-12-08T12:09:02.201Z,8.10
2022-12-08T12:10:02.903Z,8.10
2022-12-08T12:11:01.902Z,7.80
2022-12-08T12:12:01.799Z,7.80
2022-12-08T12:13:02.381Z,7.80
2022-12-08T12:14:02.466Z,7.80
2022-12-08T12:15:01.862Z,7.80
2022-12-08T12:16:02.371Z,8.30
2022-12-08T12:17:02.297Z,8.30
2022-12-08T12:18:02.164Z,8.30
2022-12-08T12:19:02.308Z,8.30
2022-12-08T12:20:02.502Z,8.30
2022-12-08T12:21:02.533Z,7.50
2022-12-08T12:22:02.273Z,7.50
2022-12-08T12:23:02.399Z,7.50
2022-12-08T12:24:02.709Z,7.50
2022-12-08T12:25:02.515Z,7.50
2022-12-08T12:26:02.832Z,6.60
2022-12-08T12:27:02.268Z,6.60
2022-12-08T12:28:02.523Z,6.60
2022-12-08T12:29:02.625Z,6.60
2022-12-08T12:30:02.505Z,6.60
2022-12-08T12:31:02.414Z,7.10
2022-12-08T12:32:02.352Z,7.10
2022-12-08T12:33:02.396Z,7.10
2022-12-08T12:34:02.727Z,7.10
2022-12-08T12:35:02.469Z,7.10
2022-12-08T12:36:02.433Z,7.00
2022-12-08T12:37:02.595Z,7.00
2022-12-08T12:38:03.206Z,7.00
2022-12-08T12:39:02.817Z,7.00
2022-12-08T12:40:02.847Z,7.00
2022-12-08T12:41:02.647Z,7.20
2022-12-08T12:42:02.688Z,7.20
2022-12-08T12:43:02.338Z,7.20
2022-12-08T12:44:02.320Z,7.20
2022-12-08T12:45:01.959Z,7.20
2022-12-08T12:46:02.205Z,7.10
2022-12-08T12:47:02.020Z,7.10
2022-12-08T12:48:02.497Z,7.10
2022-12-08T12:49:02.463Z,7.10
2022-12-08T12:50:02.551Z,7.10
2022-12-08T12:51:02.707Z,6.40
2022-12-08T12:52:02.728Z,6.40
2022-12-08T12:53:02.169Z,6.40
2022-12-08T12:54:02.556Z,6.40
2022-12-08T12:55:02.124Z,6.40
2022-12-08T12:56:01.880Z,6.50
2022-12-08T12:57:01.965Z,6.50
2022-12-08T12:58:02.423Z,6.50
2022-12-08T12:59:02.461Z,6.50
2022-12-08T13:00:02.831Z,6.50
2022-12-08T13:01:02.750Z,6.30
2022-12-08T13:02:02.963Z,6.30
2022-12-08T13:03:03.212Z,6.30
2022-12-08T13:04:02.887Z,6.30
2022-12-08T13:05:02.606Z,6.30
2022-12-08T13:06:02.887Z,5.90
2022-12-08T13:07:02.889Z,5.90
2022-12-08T13:08:02.071Z,5.90
2022-12-08T13:09:01.823Z,5.90